createdAt,value
2017-12-29T00:02:24.965Z,88.30
2017-12-29T00:04:52.940Z,88.60
2017-12-29T00:07:20.434Z,88.70
2017-12-29T00:09:48.402Z,89.40
2017-12-29T00:12:15.906Z,89.40
2017-12-29T00:14:43.893Z,90.00
2017-12-29T00:17:11.393Z,90.00
2017-12-29T00:19:39.370Z,90.10
2017-12-29T00:22:06.858Z,90.10
2017-12-29T00:24:34.800Z,89.40
2017-12-29T00:27:02.660Z,89.40
2017-12-29T00:29:30.560Z,89.10
2017-12-29T00:31:58.031Z,89.10
2017-12-29T00:34:25.932Z,89.10
2017-12-29T00:36:53.426Z,89.10
2017-12-29T00:39:20.957Z,88.80
2017-12-29T00:41:48.447Z,88.70
2017-12-29T00:44:16.046Z,89.00
2017-12-29T00:46:43.618Z,88.90
2017-12-29T00:49:11.108Z,88.90
2017-12-29T00:51:38.678Z,89.10
2017-12-29T00:54:06.179Z,88.70
2017-12-29T00:56:33.670Z,88.70
2017-12-29T00:59:01.542Z,88.60
2017-12-29T01:01:29.047Z,88.60
2017-12-29T01:03:56.915Z,88.40
2017-12-29T01:06:24.402Z,88.40
2017-12-29T01:08:51.909Z,88.40
2017-12-29T01:11:19.792Z,88.60
2017-12-29T01:13:47.278Z,88.60
2017-12-29T01:16:15.147Z,88.70
2017-12-29T01:18:42.642Z,88.70
2017-12-29T01:21:10.120Z,89.10
2017-12-29T01:23:37.642Z,90.00
2017-12-29T01:26:05.136Z,90.40
2017-12-29T01:28:32.625Z,90.60
2017-12-29T01:31:00.137Z,90.50
2017-12-29T01:33:27.649Z,90.30
2017-12-29T01:35:55.536Z,90.10
2017-12-29T01:38:23.102Z,90.10
2017-12-29T01:40:50.686Z,90.20
2017-12-29T01:43:18.159Z,89.90
2017-12-29T01:45:45.646Z,90.10
2017-12-29T01:48:13.118Z,90.10
2017-12-29T01:50:40.717Z,89.70
2017-12-29T01:53:08.209Z,89.90
2017-12-29T01:55:35.726Z,90.00
2017-12-29T01:58:03.586Z,89.90
2017-12-29T02:00:31.072Z,89.90
2017-12-29T02:02:58.579Z,89.60
2017-12-29T02:05:26.456Z,88.60
2017-12-29T02:07:54.037Z,88.60
2017-12-29T02:10:21.510Z,88.60
2017-12-29T02:12:49.101Z,88.30
2017-12-29T02:15:16.581Z,88.60
2017-12-29T02:17:44.074Z,88.40
2017-12-29T02:20:11.567Z,88.40
2017-12-29T02:22:39.105Z,88.40
2017-12-29T02:25:06.589Z,88.50
2017-12-29T02:27:34.073Z,88.60
2017-12-29T02:30:01.581Z,88.70
2017-12-29T02:32:29.172Z,88.70
2017-12-29T02:34:56.761Z,88.80
2017-12-29T02:37:24.249Z,88.30
2017-12-29T02:39:51.741Z,88.30
2017-12-29T02:42:19.605Z,88.10
2017-12-29T02:44:47.182Z,88.10
2017-12-29T02:47:14.689Z,88.00
2017-12-29T02:49:42.593Z,88.70
2017-12-29T02:52:10.479Z,88.00
2017-12-29T02:54:38.347Z,88.00
2017-12-29T02:57:05.885Z,88.00
2017-12-29T02:59:33.414Z,87.50
2017-12-29T03:02:00.898Z,87.50
2017-12-29T03:04:28.408Z,87.30
2017-12-29T03:06:56.389Z,87.40
2017-12-29T03:09:23.866Z,87.40
2017-12-29T03:11:51.445Z,87.40
2017-12-29T03:14:18.933Z,87.50
2017-12-29T03:16:46.540Z,87.60
2017-12-29T03:19:14.498Z,87.70
2017-12-29T03:21:41.978Z,87.70
2017-12-29T03:24:09.463Z,87.50
2017-12-29T03:26:36.935Z,87.70
2017-12-29T03:29:04.436Z,87.90
2017-12-29T03:31:31.920Z,87.70
2017-12-29T03:33:59.427Z,87.60
2017-12-29T03:36:27.304Z,87.30
2017-12-29T03:38:54.874Z,87.30
2017-12-29T03:41:22.381Z,87.40
2017-12-29T03:43:50.262Z,87.10
2017-12-29T03:46:17.900Z,87.10
2017-12-29T03:48:45.370Z,86.90
2017-12-29T03:51:12.864Z,86.70
2017-12-29T03:53:40.394Z,86.40
2017-12-29T03:56:07.910Z,86.70
2017-12-29T03:58:35.790Z,86.70
2017-12-29T04:01:03.658Z,86.70
2017-12-29T04:03:31.248Z,86.70
2017-12-29T04:05:58.729Z,86.40
2017-12-29T04:08:26.228Z,87.10
2017-12-29T04:10:54.090Z,87.60
2017-12-29T04:13:21.611Z,87.60
2017-12-29T04:15:49.486Z,87.80
2017-12-29T04:18:16.993Z,87.80
2017-12-29T04:20:44.902Z,87.50
2017-12-29T04:23:12.375Z,87.50
2017-12-29T04:25:39.866Z,88.00
2017-12-29T04:28:07.364Z,87.70
2017-12-29T04:30:34.854Z,87.40
2017-12-29T04:33:02.324Z,87.50
2017-12-29T04:35:29.829Z,87.30
2017-12-29T04:37:57.298Z,87.30
2017-12-29T04:40:24.824Z,87.30
2017-12-29T04:42:52.410Z,88.20
2017-12-29T04:45:19.978Z,87.70
2017-12-29T04:47:47.578Z,87.90
2017-12-29T04:50:15.246Z,87.90
2017-12-29T04:52:42.866Z,88.20
2017-12-29T04:55:10.742Z,89.20
2017-12-29T04:57:38.244Z,89.20
2017-12-29T05:00:06.129Z,88.80
2017-12-29T05:02:33.999Z,88.90
2017-12-29T05:05:01.615Z,88.90
2017-12-29T05:07:29.478Z,88.60
2017-12-29T05:09:56.985Z,88.60
2017-12-29T05:12:24.471Z,88.40
2017-12-29T05:14:52.379Z,88.40
2017-12-29T05:17:19.865Z,88.40
2017-12-29T05:19:47.389Z,88.50
2017-12-29T05:22:14.909Z,88.60
2017-12-29T05:24:42.813Z,88.40
2017-12-29T05:27:10.324Z,88.40
2017-12-29T05:29:37.804Z,88.30
2017-12-29T05:32:05.298Z,88.40
2017-12-29T05:34:32.785Z,88.50
2017-12-29T05:37:00.316Z,88.40
2017-12-29T05:39:28.296Z,88.40
2017-12-29T05:41:55.790Z,88.40
2017-12-29T05:44:23.297Z,88.40
2017-12-29T05:46:50.838Z,88.40
2017-12-29T05:49:18.327Z,88.20
2017-12-29T05:51:45.790Z,88.80
2017-12-29T05:54:13.292Z,88.40
2017-12-29T05:56:40.781Z,88.50
2017-12-29T05:59:08.294Z,88.90
2017-12-29T06:01:35.792Z,88.60
2017-12-29T06:04:03.314Z,88.70
2017-12-29T06:06:30.793Z,88.70
2017-12-29T06:08:58.304Z,89.10
2017-12-29T06:11:26.189Z,88.70
2017-12-29T06:13:53.680Z,88.60
2017-12-29T06:16:21.181Z,88.90
2017-12-29T06:18:49.050Z,89.10
2017-12-29T06:21:17.238Z,89.10
2017-12-29T06:23:44.733Z,89.00
2017-12-29T06:26:12.309Z,89.20
2017-12-29T06:28:39.882Z,88.90
2017-12-29T06:31:07.371Z,88.40
2017-12-29T06:33:34.856Z,88.80
2017-12-29T06:36:02.366Z,88.90
2017-12-29T06:38:30.341Z,88.80
2017-12-29T06:40:57.865Z,88.80
2017-12-29T06:43:25.394Z,88.40
2017-12-29T06:45:52.877Z,88.90
2017-12-29T06:48:20.385Z,88.80
2017-12-29T06:50:47.960Z,88.50
2017-12-29T06:53:15.454Z,88.30
2017-12-29T06:55:43.427Z,88.50
2017-12-29T06:58:10.921Z,88.50
2017-12-29T07:00:38.405Z,88.80
2017-12-29T07:03:05.901Z,89.00
2017-12-29T07:05:33.878Z,89.40
2017-12-29T07:08:01.385Z,89.40
2017-12-29T07:10:29.338Z,88.90
2017-12-29T07:12:56.933Z,88.90
2017-12-29T07:15:24.417Z,89.30
2017-12-29T07:17:51.922Z,89.20
2017-12-29T07:20:19.886Z,89.30
2017-12-29T07:22:47.375Z,89.30
2017-12-29T07:25:15.006Z,89.20
2017-12-29T07:27:42.539Z,89.40
2017-12-29T07:30:10.012Z,89.10
2017-12-29T07:32:37.513Z,89.10
2017-12-29T07:35:05.001Z,88.70
2017-12-29T07:37:32.570Z,88.60
2017-12-29T07:40:00.058Z,88.50
2017-12-29T07:42:27.568Z,88.40
2017-12-29T07:44:55.494Z,88.80
2017-12-29T07:47:23.023Z,88.80
2017-12-29T07:49:50.515Z,89.00
2017-12-29T07:52:18.018Z,88.90
2017-12-29T07:54:45.901Z,88.70
2017-12-29T07:57:13.783Z,88.70
2017-12-29T07:59:41.257Z,88.70
2017-12-29T08:02:08.845Z,87.90
2017-12-29T08:04:36.334Z,81.70
2017-12-29T08:07:03.817Z,83.60
2017-12-29T08:09:31.328Z,85.30
2017-12-29T08:11:58.833Z,86.50
2017-12-29T08:14:26.365Z,87.00
2017-12-29T08:16:54.255Z,87.90
2017-12-29T08:19:21.762Z,87.90
2017-12-29T08:21:49.649Z,87.60
2017-12-29T08:24:17.629Z,87.60
2017-12-29T08:26:45.122Z,87.60
2017-12-29T08:29:12.946Z,87.60
2017-12-29T08:31:40.421Z,87.20
2017-12-29T08:34:08.370Z,87.30
2017-12-29T08:36:35.861Z,87.30
2017-12-29T08:39:03.372Z,87.40
2017-12-29T08:41:31.248Z,87.20
2017-12-29T08:43:58.730Z,87.20
2017-12-29T08:46:26.302Z,86.80
2017-12-29T08:48:53.908Z,86.90
2017-12-29T08:51:21.402Z,86.50
2017-12-29T08:53:49.302Z,86.40
2017-12-29T08:56:17.174Z,86.40
2017-12-29T08:58:44.677Z,86.40
2017-12-29T09:01:12.561Z,86.40
2017-12-29T09:03:40.464Z,86.30
2017-12-29T09:06:08.433Z,85.90
2017-12-29T09:08:35.934Z,85.90
2017-12-29T09:11:03.905Z,85.40
2017-12-29T09:13:31.427Z,85.40
2017-12-29T09:15:58.973Z,85.30
2017-12-29T09:18:26.463Z,85.50
2017-12-29T09:20:54.036Z,84.60
2017-12-29T09:23:21.547Z,85.00
2017-12-29T09:25:49.424Z,83.90
2017-12-29T09:28:16.994Z,83.90
2017-12-29T09:30:44.497Z,83.70
2017-12-29T09:33:12.408Z,82.70
2017-12-29T09:35:39.951Z,82.70
2017-12-29T09:38:07.430Z,82.00
2017-12-29T09:40:35.030Z,81.70
2017-12-29T09:43:02.517Z,81.40
2017-12-29T09:45:30.014Z,80.70
2017-12-29T09:47:57.888Z,79.00
2017-12-29T09:50:25.393Z,79.00
2017-12-29T09:52:53.258Z,78.70
2017-12-29T09:55:20.849Z,78.70
2017-12-29T09:57:48.441Z,78.40
2017-12-29T10:00:16.012Z,77.40
2017-12-29T10:02:43.478Z,77.30
2017-12-29T10:05:10.982Z,77.70
2017-12-29T10:07:38.574Z,78.00
2017-12-29T10:10:06.157Z,78.00
2017-12-29T10:12:33.641Z,78.80
2017-12-29T10:15:01.229Z,77.80
2017-12-29T10:17:29.225Z,79.00
2017-12-29T10:19:56.726Z,79.00
2017-12-29T10:22:24.687Z,78.10
2017-12-29T10:24:52.174Z,78.10
2017-12-29T10:27:19.661Z,78.00
2017-12-29T10:29:47.169Z,78.30
2017-12-29T10:32:15.151Z,80.30
2017-12-29T10:34:43.031Z,79.80
2017-12-29T10:37:10.517Z,79.80
2017-12-29T10:39:38.025Z,79.40
2017-12-29T10:42:05.505Z,80.50
2017-12-29T10:44:33.404Z,80.50
2017-12-29T10:47:00.879Z,80.50
2017-12-29T10:49:28.757Z,81.20
2017-12-29T10:51:56.726Z,81.00
2017-12-29T10:54:24.230Z,80.90
2017-12-29T10:56:51.728Z,80.30
2017-12-29T10:59:19.589Z,80.80
2017-12-29T11:01:47.089Z,80.80
2017-12-29T11:04:14.955Z,80.70
2017-12-29T11:06:42.537Z,80.60
2017-12-29T11:09:10.033Z,80.70
2017-12-29T11:11:37.526Z,81.30
2017-12-29T11:14:04.999Z,80.50
2017-12-29T11:16:32.596Z,80.00
2017-12-29T11:19:00.101Z,80.30
2017-12-29T11:21:28.012Z,80.70
2017-12-29T11:23:55.480Z,80.70
2017-12-29T11:26:22.985Z,80.80
2017-12-29T11:28:50.494Z,79.40
2017-12-29T11:31:17.995Z,79.80
2017-12-29T11:33:45.470Z,80.40
2017-12-29T11:36:13.050Z,79.70
2017-12-29T11:38:40.537Z,77.50
2017-12-29T11:41:08.045Z,76.60
2017-12-29T11:43:35.910Z,78.10
2017-12-29T11:46:03.447Z,78.10
2017-12-29T11:48:31.001Z,78.20
2017-12-29T11:50:58.490Z,78.40
2017-12-29T11:53:25.958Z,79.20
2017-12-29T11:55:53.461Z,78.80
2017-12-29T11:58:21.369Z,79.60
2017-12-29T12:00:49.682Z,79.60
2017-12-29T12:03:17.158Z,79.60
2017-12-29T12:05:44.665Z,79.80
2017-12-29T12:08:12.145Z,79.70
2017-12-29T12:10:39.660Z,79.50
2017-12-29T12:13:07.167Z,79.80
2017-12-29T12:15:35.042Z,80.40
2017-12-29T12:18:02.542Z,80.40
2017-12-29T12:20:30.423Z,80.30
2017-12-29T12:22:57.994Z,80.30
2017-12-29T12:25:25.489Z,79.50
2017-12-29T12:27:52.982Z,79.80
2017-12-29T12:30:20.451Z,79.80
2017-12-29T12:32:47.952Z,79.20
2017-12-29T12:35:15.828Z,77.30
2017-12-29T12:37:43.329Z,77.30
2017-12-29T12:40:11.282Z,78.80
2017-12-29T12:42:38.788Z,78.80
2017-12-29T12:45:06.277Z,79.20
2017-12-29T12:47:34.173Z,79.80
2017-12-29T12:50:02.040Z,80.00
2017-12-29T12:52:29.549Z,80.00
2017-12-29T12:54:57.411Z,81.20
2017-12-29T12:57:24.916Z,81.20
2017-12-29T12:59:52.401Z,81.00
2017-12-29T13:02:20.374Z,83.10
2017-12-29T13:04:47.846Z,83.10
2017-12-29T13:07:15.357Z,84.10
2017-12-29T13:09:42.845Z,85.10
2017-12-29T13:12:10.769Z,88.70
2017-12-29T13:14:38.257Z,88.70
2017-12-29T13:17:05.747Z,90.30
2017-12-29T13:19:33.222Z,90.90
2017-12-29T13:22:00.746Z,91.50
2017-12-29T13:24:28.250Z,91.60
2017-12-29T13:26:55.786Z,92.30
2017-12-29T13:29:23.335Z,92.80
2017-12-29T13:31:51.223Z,93.70
2017-12-29T13:34:19.197Z,93.70
2017-12-29T13:36:46.785Z,93.80
2017-12-29T13:39:14.262Z,94.90
2017-12-29T13:41:41.749Z,91.50
2017-12-29T13:44:09.234Z,92.80
2017-12-29T13:46:36.720Z,93.60
2017-12-29T13:49:04.215Z,94.00
2017-12-29T13:51:32.075Z,95.00
2017-12-29T13:53:59.590Z,95.00
2017-12-29T13:56:27.565Z,94.80
2017-12-29T13:58:55.077Z,94.80
2017-12-29T14:01:22.560Z,95.00
2017-12-29T14:03:50.117Z,95.60
2017-12-29T14:06:17.602Z,96.10
2017-12-29T14:08:45.091Z,96.50
2017-12-29T14:11:12.999Z,95.90
2017-12-29T14:13:40.969Z,96.10
2017-12-29T14:16:08.450Z,96.10
2017-12-29T14:18:36.049Z,96.10
2017-12-29T14:21:03.910Z,96.60
2017-12-29T14:23:31.416Z,96.60
2017-12-29T14:25:58.891Z,97.00
2017-12-29T14:28:26.466Z,97.10
2017-12-29T14:30:53.988Z,97.20
2017-12-29T14:33:21.880Z,97.10
2017-12-29T14:35:49.432Z,97.10
2017-12-29T14:38:16.939Z,96.90
2017-12-29T14:40:44.827Z,96.70
2017-12-29T14:43:12.729Z,96.90
2017-12-29T14:45:40.599Z,97.00
2017-12-29T14:48:08.094Z,97.00
2017-12-29T14:50:35.981Z,96.90
2017-12-29T14:53:03.913Z,97.60
2017-12-29T14:55:31.388Z,97.60
2017-12-29T14:57:58.879Z,98.20
2017-12-29T15:00:26.350Z,98.10
2017-12-29T15:02:53.921Z,97.90
2017-12-29T15:05:21.874Z,97.60
2017-12-29T15:07:49.362Z,97.60
2017-12-29T15:10:16.946Z,97.30
2017-12-29T15:12:44.437Z,96.90
2017-12-29T15:15:12.014Z,97.20
2017-12-29T15:17:39.501Z,99.90
2017-12-29T15:20:07.002Z,94.00
2017-12-29T15:22:34.592Z,95.90
2017-12-29T15:25:02.086Z,96.60
2017-12-29T15:27:29.965Z,97.30
2017-12-29T15:29:57.874Z,97.00
2017-12-29T15:32:25.757Z,97.00
2017-12-29T15:34:53.661Z,97.50
2017-12-29T15:37:21.134Z,97.50
2017-12-29T15:39:49.065Z,97.40
2017-12-29T15:42:16.578Z,97.40
2017-12-29T15:44:44.114Z,97.60
2017-12-29T15:47:11.653Z,97.40
2017-12-29T15:49:39.154Z,97.60
2017-12-29T15:52:07.033Z,97.40
2017-12-29T15:54:34.621Z,97.30
2017-12-29T15:57:02.095Z,97.40
2017-12-29T15:59:29.583Z,97.30
2017-12-29T16:02:00.639Z,97.10
2017-12-29T16:04:28.141Z,96.80
2017-12-29T16:06:56.053Z,96.90
2017-12-29T16:09:23.957Z,96.90
2017-12-29T16:11:51.445Z,96.90
2017-12-29T16:14:19.133Z,97.10
2017-12-29T16:16:46.628Z,96.80
2017-12-29T16:19:14.276Z,96.70
2017-12-29T16:21:41.782Z,97.00
2017-12-29T16:24:09.292Z,96.70
2017-12-29T16:26:36.781Z,97.00
2017-12-29T16:29:04.301Z,96.80
2017-12-29T16:31:31.857Z,96.90
2017-12-29T16:33:59.457Z,97.10
2017-12-29T16:36:27.045Z,97.00
2017-12-29T16:38:54.606Z,96.90
2017-12-29T16:41:22.209Z,96.80
2017-12-29T16:43:49.686Z,97.00
2017-12-29T16:46:17.278Z,96.90
2017-12-29T16:48:44.746Z,96.90
2017-12-29T16:51:12.276Z,96.70
2017-12-29T16:53:39.815Z,97.00
2017-12-29T16:56:07.402Z,96.90
2017-12-29T16:58:34.896Z,96.80
2017-12-29T17:01:02.485Z,96.60
2017-12-29T17:03:29.967Z,96.90
2017-12-29T17:05:57.474Z,96.90
2017-12-29T17:08:25.338Z,96.80
2017-12-29T17:10:52.835Z,96.80
2017-12-29T17:13:20.701Z,96.90
2017-12-29T17:15:48.239Z,96.90
2017-12-29T17:18:15.756Z,96.70
2017-12-29T17:20:43.389Z,97.00
2017-12-29T17:23:11.251Z,96.70
2017-12-29T17:25:38.867Z,96.60
2017-12-29T17:28:06.730Z,96.10
2017-12-29T17:30:34.235Z,96.10
2017-12-29T17:33:02.130Z,92.30
2017-12-29T17:35:30.072Z,85.20
2017-12-29T17:37:57.575Z,85.20
2017-12-29T17:40:25.066Z,88.10
2017-12-29T17:42:52.657Z,90.90
2017-12-29T17:45:20.149Z,92.90
2017-12-29T17:47:47.618Z,93.90
2017-12-29T17:50:15.177Z,94.80
2017-12-29T17:52:42.693Z,95.20
2017-12-29T17:55:10.305Z,95.70
2017-12-29T17:57:38.273Z,95.60
2017-12-29T18:00:05.753Z,95.60
2017-12-29T18:02:33.253Z,96.10
2017-12-29T18:05:01.122Z,96.30
2017-12-29T18:07:28.615Z,96.20
2017-12-29T18:09:56.165Z,96.50
2017-12-29T18:12:23.702Z,96.70
2017-12-29T18:14:51.562Z,96.60
2017-12-29T18:17:19.058Z,96.60
2017-12-29T18:19:46.631Z,96.60
2017-12-29T18:22:14.208Z,96.80
2017-12-29T18:24:41.713Z,97.00
2017-12-29T18:27:09.369Z,97.10
2017-12-29T18:29:36.902Z,97.30
2017-12-29T18:32:04.802Z,97.40
2017-12-29T18:34:32.297Z,97.40
2017-12-29T18:36:59.782Z,97.20
2017-12-29T18:39:27.362Z,97.30
2017-12-29T18:41:55.511Z,96.80
2017-12-29T18:44:22.982Z,96.70
2017-12-29T18:46:50.485Z,97.10
2017-12-29T18:49:17.969Z,97.00
2017-12-29T18:51:45.471Z,96.70
2017-12-29T18:54:12.981Z,96.80
2017-12-29T18:56:40.485Z,96.60
2017-12-29T18:59:07.966Z,96.50
2017-12-29T19:01:35.462Z,96.50
2017-12-29T19:04:02.927Z,96.50
2017-12-29T19:06:30.435Z,96.70
2017-12-29T19:08:57.906Z,96.60
2017-12-29T19:11:25.410Z,96.70
2017-12-29T19:13:52.901Z,96.70
2017-12-29T19:16:20.470Z,96.50
2017-12-29T19:18:48.059Z,96.40
2017-12-29T19:21:15.545Z,96.40
2017-12-29T19:23:43.039Z,96.70
2017-12-29T19:26:10.521Z,96.60
2017-12-29T19:28:38.019Z,96.50
2017-12-29T19:31:05.897Z,96.60
2017-12-29T19:33:33.386Z,96.70
2017-12-29T19:36:01.266Z,97.00
2017-12-29T19:38:28.758Z,97.00
2017-12-29T19:40:56.620Z,97.40
2017-12-29T19:43:24.225Z,97.40
2017-12-29T19:45:51.698Z,97.50
2017-12-29T19:48:19.186Z,97.70
2017-12-29T19:50:46.673Z,97.50
2017-12-29T19:53:14.171Z,97.70
2017-12-29T19:55:42.049Z,97.50
2017-12-29T19:58:09.618Z,97.30
2017-12-29T20:00:37.098Z,97.30
2017-12-29T20:03:04.594Z,97.30
2017-12-29T20:05:32.174Z,96.70
2017-12-29T20:07:59.693Z,96.80
2017-12-29T20:10:27.170Z,96.90
2017-12-29T20:12:55.245Z,96.50
2017-12-29T20:15:22.760Z,96.50
2017-12-29T20:17:50.254Z,96.50
2017-12-29T20:20:17.736Z,96.40
2017-12-29T20:22:45.249Z,96.30
2017-12-29T20:25:12.727Z,96.30
2017-12-29T20:27:40.238Z,96.40
2017-12-29T20:30:07.721Z,96.40
2017-12-29T20:32:35.302Z,96.50
2017-12-29T20:35:02.789Z,96.40
2017-12-29T20:37:30.283Z,96.20
2017-12-29T20:39:57.854Z,95.90
2017-12-29T20:42:25.353Z,95.80
2017-12-29T20:44:53.256Z,95.90
2017-12-29T20:47:21.233Z,95.80
2017-12-29T20:49:48.718Z,95.80
2017-12-29T20:52:16.201Z,95.60
2017-12-29T20:54:43.770Z,95.50
2017-12-29T20:57:11.246Z,95.50
2017-12-29T20:59:38.753Z,95.40
2017-12-29T21:02:06.237Z,95.50
2017-12-29T21:04:33.741Z,95.70
2017-12-29T21:07:01.622Z,95.20
2017-12-29T21:09:29.114Z,95.20
2017-12-29T21:11:56.588Z,95.10
2017-12-29T21:14:24.074Z,95.10
2017-12-29T21:16:51.547Z,95.10
2017-12-29T21:19:19.051Z,94.80
2017-12-29T21:21:46.933Z,95.10
2017-12-29T21:24:14.445Z,95.10
2017-12-29T21:26:41.924Z,94.50
2017-12-29T21:29:09.818Z,95.10
2017-12-29T21:31:37.686Z,95.00
2017-12-29T21:34:05.179Z,95.00
2017-12-29T21:36:33.043Z,95.60
2017-12-29T21:39:00.538Z,95.60
2017-12-29T21:41:28.015Z,95.10
2017-12-29T21:43:56.297Z,95.30
2017-12-29T21:46:23.770Z,95.30
2017-12-29T21:48:51.278Z,95.10
2017-12-29T21:51:18.766Z,95.10
2017-12-29T21:53:46.255Z,95.10
2017-12-29T21:56:13.761Z,95.40
2017-12-29T21:58:41.330Z,95.40
2017-12-29T22:01:08.841Z,95.60
2017-12-29T22:03:36.714Z,95.10
2017-12-29T22:06:04.289Z,95.10
2017-12-29T22:08:31.762Z,95.00
2017-12-29T22:10:59.325Z,95.00
2017-12-29T22:13:27.272Z,95.20
2017-12-29T22:15:54.886Z,95.20
2017-12-29T22:18:22.434Z,95.10
2017-12-29T22:20:49.910Z,95.70
2017-12-29T22:23:17.421Z,95.60
2017-12-29T22:25:45.397Z,95.70
2017-12-29T22:28:12.984Z,95.70
2017-12-29T22:30:40.485Z,95.70
2017-12-29T22:33:08.003Z,95.90
2017-12-29T22:35:35.497Z,95.90
2017-12-29T22:38:03.025Z,96.10
2017-12-29T22:40:30.902Z,96.90
2017-12-29T22:42:58.378Z,96.90
2017-12-29T22:45:25.905Z,96.70
2017-12-29T22:47:53.399Z,97.20
2017-12-29T22:50:20.895Z,97.40
2017-12-29T22:52:48.386Z,97.10
2017-12-29T22:55:16.008Z,97.50
2017-12-29T22:57:43.505Z,98.20
2017-12-29T23:00:11.429Z,98.70
2017-12-29T23:02:38.957Z,98.70
2017-12-29T23:05:06.542Z,98.80
2017-12-29T23:07:34.146Z,98.60
2017-12-29T23:10:02.033Z,97.80
2017-12-29T23:12:29.532Z,97.80
2017-12-29T23:14:57.418Z,97.30
2017-12-29T23:17:25.399Z,97.40
2017-12-29T23:19:52.879Z,97.40
2017-12-29T23:22:20.370Z,97.10
2017-12-29T23:24:47.953Z,96.70
2017-12-29T23:27:15.449Z,96.60
2017-12-29T23:29:43.517Z,96.60
2017-12-29T23:32:11.049Z,96.60
2017-12-29T23:34:38.598Z,96.70
2017-12-29T23:37:06.170Z,96.40
2017-12-29T23:39:33.753Z,96.40
2017-12-29T23:42:01.241Z,96.40
2017-12-29T23:44:28.752Z,96.30
2017-12-29T23:46:56.636Z,95.80
2017-12-29T23:49:24.200Z,95.80
2017-12-29T23:51:51.670Z,95.50
2017-12-29T23:54:19.173Z,95.40
2017-12-29T23:56:46.642Z,95.60
2017-12-29T23:59:14.165Z,95.20
